Time;durP1;ratioP1;P1;durP2;ratioP2;P2;SDS_P1;SDS_P2;PMS_P1;PMS_P2;Temp;Humidity;BMP_temperature;BMP_pressure;BME280_temperature;BME280_humidity;BME280_pressure;Samples;Min_cycle;Max_cycle;Signal;HPM_P1;HPM_P2
2022/07/28 00:00:55;;;;;;;8.55;5.28;;;;;;;18.33;100.00;100130.47;10412973;28;20045;-69
2022/07/28 00:05:56;;;;;;;10.15;5.82;;;;;;;17.81;100.00;100058.25;10412352;28;20159;-69
2022/07/28 00:10:57;;;;;;;5.97;4.32;;;;;;;17.99;100.00;100103.13;10414197;28;20468;-69
2022/07/28 00:15:58;;;;;;;9.27;5.00;;;;;;;18.13;100.00;100139.59;10420980;28;20049;-69
2022/07/28 00:21:00;;;;;;;13.98;4.82;;;;;;;17.76;100.00;100083.06;10420336;28;20053;-69
2022/07/28 00:26:01;;;;;;;18.25;4.90;;;;;;;18.18;100.00;100153.16;10420708;28;20056;-69
2022/07/28 00:31:02;;;;;;;23.90;5.95;;;;;;;18.13;100.00;100166.47;10420192;28;20041;-69
2022/07/28 00:36:03;;;;;;;6.28;4.82;;;;;;;18.02;100.00;100169.88;10420560;28;20120;-70
2022/07/28 00:41:10;;;;;;;11.07;4.90;;;;;;;17.87;100.00;100158.66;10420257;28;20045;-69
2022/07/28 00:46:12;;;;;;;9.30;5.13;;;;;;;17.38;100.00;100090.41;10419465;28;20037;-69
2022/07/28 00:51:17;;;;;;;21.63;5.30;;;;;;;17.77;100.00;100149.22;10420200;28;20096;-69
2022/07/28 00:56:19;;;;;;;18.05;5.97;;;;;;;17.74;100.00;100163.06;10418581;28;20068;-70
2022/07/28 01:01:20;;;;;;;17.95;5.13;;;;;;;17.78;100.00;100180.41;10419296;28;20045;-70
2022/07/28 01:06:51;;;;;;;8.60;5.03;;;;;;;17.80;100.00;100182.91;10418854;28;20048;-70
2022/07/28 01:12:11;;;;;;;19.48;5.45;;;;;;;17.17;100.00;100105.88;10418539;28;20041;-71
2022/07/28 01:17:39;;;;;;;21.70;5.65;;;;;;;17.68;100.00;100189.97;10418446;28;20043;-70
2022/07/28 01:22:53;;;;;;;38.20;5.68;;;;;;;17.64;100.00;100194.97;10454103;28;20504;-70
2022/07/28 01:28:43;;;;;;;30.95;6.20;;;;;;;17.74;100.00;100205.25;10448659;28;20041;-70
2022/07/28 01:33:50;;;;;;;39.75;7.55;;;;;;;17.66;100.00;100219.75;10416279;28;20099;-70
2022/07/28 01:38:51;;;;;;;13.85;5.78;;;;;;;17.50;100.00;100188.88;10430109;28;20060;-70
2022/07/28 01:43:59;;;;;;;13.63;5.53;;;;;;;17.63;100.00;100214.81;10459006;28;20049;-70
2022/07/28 01:49:01;;;;;;;11.40;5.63;;;;;;;17.40;100.00;100180.47;10458761;28;20048;-70
2022/07/28 01:54:04;;;;;;;12.20;5.32;;;;;;;16.94;100.00;100105.59;10459318;28;20045;-70
2022/07/28 01:59:08;;;;;;;24.00;6.38;;;;;;;17.24;100.00;100156.81;10458696;28;20060;-70
2022/07/28 02:04:11;;;;;;;17.85;6.00;;;;;;;17.55;100.00;100186.34;10457617;28;20052;-70
2022/07/28 02:09:12;;;;;;;14.82;6.63;;;;;;;17.89;100.00;100223.72;10457933;28;20041;-70
2022/07/28 02:14:16;;;;;;;11.55;6.32;;;;;;;17.95;100.00;100220.19;10458500;28;20040;-71
2022/07/28 02:19:18;;;;;;;;;;;;;;;18.21;100.00;100232.56;10456691;28;20094;-70
2022/07/28 02:24:25;;;;;;;8.43;5.82;;;;;;;18.17;100.00;100232.19;10457218;28;19978;-70
2022/07/28 02:29:28;;;;;;;11.95;5.95;;;;;;;18.23;100.00;100230.50;10457174;28;20036;-70
2022/07/28 02:34:32;;;;;;;8.40;6.10;;;;;;;18.33;100.00;100238.03;10456321;28;20040;-70
2022/07/28 02:39:47;;;;;;;13.00;6.22;;;;;;;18.47;100.00;100243.06;10456856;28;20416;-70
2022/07/28 02:45:03;;;;;;;6.22;5.38;;;;;;;18.47;100.00;100220.72;10457195;28;20045;-69
2022/07/28 02:50:06;;;;;;;9.40;5.80;;;;;;;18.70;100.00;100223.59;10456640;28;20052;-69
2022/07/28 02:55:09;;;;;;;9.50;5.97;;;;;;;18.82;100.00;100202.16;10456856;28;20056;-69
2022/07/28 03:00:11;;;;;;;42.77;7.57;;;;;;;19.86;100.00;100233.47;10452437;28;20149;-69
2022/07/28 03:05:14;;;;;;;8.18;5.20;;;;;;;20.97;100.00;100266.81;10454703;28;20400;-69
2022/07/28 03:10:24;;;;;;;8.13;5.05;;;;;;;22.16;98.04;100268.75;10455038;28;20496;-69
2022/07/28 03:15:25;;;;;;;9.02;5.15;;;;;;;23.21;97.34;100272.44;10455373;28;20029;-69
2022/07/28 03:20:27;;;;;;;7.03;4.10;;;;;;;23.47;89.76;100188.66;10455195;28;20041;-69
2022/07/28 03:25:38;;;;;;;4.57;3.80;;;;;;;25.07;78.01;100270.94;10455478;28;20086;-69
2022/07/28 03:30:42;;;;;;;5.80;3.78;;;;;;;25.93;75.94;100277.69;10456011;28;20130;-68
2022/07/28 03:35:49;;;;;;;5.25;4.03;;;;;;;26.33;71.28;100249.66;10454765;28;20044;-69
2022/07/28 03:40:55;;;;;;;6.90;3.95;;;;;;;26.79;68.57;100225.03;10454707;28;20055;-69
2022/07/28 03:45:56;;;;;;;7.20;4.00;;;;;;;27.66;67.54;100284.59;10453915;28;20060;-69
2022/07/28 03:50:57;;;;;;;5.32;3.70;;;;;;;27.62;65.55;100237.16;10454884;28;20089;-68
2022/07/28 03:55:58;;;;;;;8.85;4.22;;;;;;;27.94;63.26;100219.44;10454323;28;20041;-68
2022/07/28 04:00:59;;;;;;;5.00;3.42;;;;;;;28.36;62.06;100289.81;10452605;28;20048;-68
2022/07/28 04:06:00;;;;;;;6.20;4.07;;;;;;;28.40;61.26;100290.84;10447444;28;20036;-70
2022/07/28 04:11:01;;;;;;;10.65;4.00;;;;;;;28.60;59.93;100283.59;10451809;28;20095;-69
2022/07/28 04:16:02;;;;;;;4.82;3.20;;;;;;;29.27;57.61;100261.75;10445090;28;20048;-70
2022/07/28 04:21:03;;;;;;;8.70;3.47;;;;;;;28.72;56.70;100151.94;10449324;28;20408;-69
2022/07/28 04:26:04;;;;;;;4.57;3.00;;;;;;;29.55;55.02;100270.91;10448805;28;20045;-68
2022/07/28 04:31:05;;;;;;;4.50;2.80;;;;;;;29.55;54.96;100290.88;10431751;28;20057;-71
2022/07/28 04:36:06;;;;;;;6.57;3.20;;;;;;;28.93;55.94;100294.69;10453677;28;20048;-67
2022/07/28 04:41:07;;;;;;;5.45;2.67;;;;;;;28.42;57.52;100293.34;10453288;28;20049;-69
2022/07/28 04:46:08;;;;;;;7.03;2.97;;;;;;;27.99;57.59;100298.56;10453072;28;20131;-68
2022/07/28 04:51:09;;;;;;;5.25;2.70;;;;;;;27.83;57.40;100303.34;10452299;28;20068;-70
2022/07/28 04:56:10;;;;;;;4.93;3.28;;;;;;;27.49;56.93;100257.69;10427480;28;20512;-71
2022/07/28 05:01:12;;;;;;;10.50;3.88;;;;;;;27.46;58.08;100258.28;10417812;28;20052;-71
2022/07/28 05:06:13;;;;;;;3.88;2.70;;;;;;;27.45;57.27;100280.38;10418705;28;20051;-71
2022/07/28 05:11:14;;;;;;;8.32;3.47;;;;;;;26.84;58.99;100214.09;10419577;28;20400;-71
2022/07/28 05:16:15;;;;;;;5.53;3.10;;;;;;;26.44;59.02;100186.97;10418895;28;20051;-71
2022/07/28 05:21:16;;;;;;;6.10;3.70;;;;;;;26.99;59.13;100288.75;10419793;28;20128;-70
2022/07/28 05:26:17;;;;;;;14.35;4.05;;;;;;;27.03;59.70;100289.81;10419091;28;20064;-70
2022/07/28 05:31:18;;;;;;;4.93;3.20;;;;;;;26.76;60.00;100292.91;10418384;28;20033;-71
2022/07/28 05:36:18;;;;;;;7.10;4.25;;;;;;;26.66;60.47;100273.88;10417514;28;20042;-71
2022/07/28 05:41:19;;;;;;;4.65;3.00;;;;;;;26.55;61.07;100292.94;10417897;28;20436;-70
2022/07/28 05:46:20;;;;;;;14.60;13.10;;;;;;;26.06;62.39;100181.91;10416869;28;20040;-70
2022/07/28 05:51:21;;;;;;;5.00;3.85;;;;;;;26.59;61.19;100245.00;10417879;28;20072;-72
2022/07/28 05:56:22;;;;;;;6.75;3.78;;;;;;;26.86;61.03;100282.78;10416615;28;20037;-72
2022/07/28 06:01:23;;;;;;;4.03;2.80;;;;;;;26.89;60.70;100258.78;10417112;28;20049;-72
2022/07/28 06:06:23;;;;;;;3.50;2.83;;;;;;;26.67;60.01;100213.63;10416734;28;20497;-72
2022/07/28 06:11:24;;;;;;;4.93;2.83;;;;;;;27.21;58.77;100272.84;10416029;28;20060;-72
2022/07/28 06:16:25;;;;;;;4.43;2.78;;;;;;;27.08;58.16;100260.63;10416544;28;20037;-71
2022/07/28 06:21:26;;;;;;;5.75;3.42;;;;;;;26.71;57.38;100175.72;10415640;28;20041;-72
2022/07/28 06:26:26;;;;;;;3.97;2.97;;;;;;;27.21;56.96;100242.84;10416405;28;20452;-71
2022/07/28 06:31:27;;;;;;;11.30;3.80;;;;;;;27.12;56.61;100210.97;10415882;28;20489;-71
2022/07/28 06:36:28;;;;;;;3.47;2.80;;;;;;;26.94;55.98;100174.25;10415143;28;20037;-71
2022/07/28 06:41:29;;;;;;;9.18;3.15;;;;;;;27.06;57.81;100194.63;10415455;28;20056;-71
2022/07/28 06:46:30;;;;;;;3.00;2.30;;;;;;;27.51;56.38;100265.59;10415157;28;20038;-71
2022/07/28 06:51:32;;;;;;;5.95;2.70;;;;;;;27.54;55.73;100254.91;10415618;28;20049;-71
2022/07/28 06:56:33;;;;;;;6.35;3.20;;;;;;;27.70;55.85;100273.91;10415007;28;20033;-71
2022/07/28 07:01:33;;;;;;;8.77;2.88;;;;;;;27.70;55.57;100261.09;10414094;28;20412;-71
2022/07/28 07:06:34;;;;;;;4.32;2.80;;;;;;;27.20;55.37;100192.16;10413542;28;20128;-72
2022/07/28 07:11:36;;;;;;;3.03;2.15;;;;;;;27.50;54.50;100253.88;10414510;28;20033;-72
2022/07/28 07:16:36;;;;;;;3.65;2.60;;;;;;;27.13;55.00;100164.31;10413720;28;20060;-72
2022/07/28 07:21:37;;;;;;;6.07;2.83;;;;;;;28.04;55.05;100263.03;10413598;28;20045;-72
2022/07/28 07:26:38;;;;;;;4.70;2.40;;;;;;;27.98;53.38;100247.81;10413857;28;20037;-72
2022/07/28 07:31:40;;;;;;;5.55;2.50;;;;;;;28.17;53.10;100253.38;10412722;28;20451;-72
2022/07/28 07:36:40;;;;;;;8.25;3.00;;;;;;;28.25;52.52;100238.28;10413621;28;20037;-72
2022/07/28 07:41:41;;;;;;;4.72;2.70;;;;;;;27.97;51.91;100173.28;10412928;28;20052;-71
2022/07/28 07:46:42;;;;;;;6.97;3.00;;;;;;;28.15;51.41;100179.09;10412939;28;20052;-72
2022/07/28 07:51:43;;;;;;;5.72;3.00;;;;;;;28.48;50.70;100207.47;10413604;28;20187;-72
2022/07/28 07:56:44;;;;;;;5.68;2.83;;;;;;;28.86;50.47;100213.00;10413305;28;20493;-72
2022/07/28 08:01:44;;;;;;;4.15;2.83;;;;;;;29.06;51.25;100237.38;10413061;28;20069;-72
2022/07/28 08:06:45;;;;;;;4.65;3.03;;;;;;;28.63;51.26;100149.91;10412543;28;20047;-73
2022/07/28 08:11:46;;;;;;;6.38;3.00;;;;;;;29.11;49.57;100220.13;10413060;28;20087;-74
2022/07/28 08:16:47;;;;;;;5.65;3.13;;;;;;;29.27;48.83;100224.25;10412360;28;20060;-73
2022/07/28 08:21:47;;;;;;;6.57;3.10;;;;;;;29.17;49.04;100201.69;10412684;28;20139;-72
2022/07/28 08:26:50;;;;;;;4.75;3.00;;;;;;;29.41;48.38;100204.38;10412094;28;20045;-72
2022/07/28 08:31:50;;;;;;;3.77;2.90;;;;;;;29.63;47.45;100225.66;10412588;28;20409;-72
2022/07/28 08:36:53;;;;;;;9.07;3.33;;;;;;;29.65;48.06;100207.03;10420587;28;20045;-72
2022/07/28 08:42:03;;;;;;;7.80;2.70;;;;;;;30.09;47.47;100224.88;10420482;28;20416;-72
2022/07/28 08:47:09;;;;;;;3.13;2.60;;;;;;;29.91;45.91;100221.88;10419481;28;20045;-73
2022/07/28 08:52:12;;;;;;;4.45;2.70;;;;;;;30.08;44.77;100215.84;10420195;28;20057;-73
2022/07/28 08:57:19;;;;;;;4.78;2.40;;;;;;;30.21;43.97;100227.97;10419236;28;20459;-73
2022/07/28 09:02:22;;;;;;;6.63;3.30;;;;;;;30.04;44.70;100214.84;10418813;28;20136;-71
2022/07/28 09:07:24;;;;;;;5.53;2.53;;;;;;;29.89;45.91;100136.50;10419504;28;20370;-72
2022/07/28 09:12:24;;;;;;;4.20;2.63;;;;;;;30.52;44.51;100209.03;10418403;28;20054;-72
2022/07/28 09:17:25;;;;;;;5.40;2.65;;;;;;;30.55;43.56;100191.16;10434596;28;20033;-73
2022/07/28 09:22:26;;;;;;;3.90;2.50;;;;;;;29.97;43.66;100072.00;10436168;28;20103;-74
2022/07/28 09:27:27;;;;;;;4.15;2.75;;;;;;;30.67;42.61;100188.72;10419019;28;20064;-73
2022/07/28 09:32:30;;;;;;;4.00;2.50;;;;;;;30.20;42.99;100089.34;10429134;28;20037;-74
2022/07/28 09:37:31;;;;;;;4.95;2.60;;;;;;;31.00;41.76;100183.13;10417698;28;20047;-72
2022/07/28 09:42:45;;;;;;;6.15;2.53;;;;;;;30.67;40.78;100122.91;10434030;28;20043;-73
2022/07/28 09:47:46;;;;;;;4.18;2.53;;;;;;;30.20;41.71;100122.22;10443941;28;20071;-73
2022/07/28 09:52:46;;;;;;;5.13;2.40;;;;;;;30.48;42.18;100140.31;10434826;28;20102;-74
2022/07/28 09:57:49;;;;;;;3.47;2.60;;;;;;;30.42;41.69;100114.13;10434157;28;20045;-72
2022/07/28 10:02:50;;;;;;;8.32;2.90;;;;;;;30.27;41.90;100097.97;10431298;28;20076;-72
2022/07/28 10:07:51;;;;;;;5.03;2.72;;;;;;;30.71;41.74;100181.50;10433644;28;20128;-73
2022/07/28 10:13:04;;;;;;;4.15;2.58;;;;;;;29.65;42.18;100111.22;10431233;28;20091;-74
2022/07/28 10:18:05;;;;;;;3.83;2.72;;;;;;;29.29;43.08;100103.59;10434211;28;20378;-72
2022/07/28 10:23:10;;;;;;;4.90;2.97;;;;;;;30.05;41.80;100172.63;10443881;28;20492;-72
2022/07/28 10:28:15;;;;;;;4.45;2.90;;;;;;;30.30;40.40;100167.81;10456847;28;20048;-71
2022/07/28 10:33:17;;;;;;;4.00;2.45;;;;;;;30.33;40.30;100126.09;10432872;28;20036;-72
2022/07/28 10:38:20;;;;;;;5.03;2.83;;;;;;;30.78;39.75;100178.34;10433617;28;20083;-72
2022/07/28 10:43:22;;;;;;;6.18;2.55;;;;;;;31.00;39.87;100174.88;10455484;28;20051;-74
2022/07/28 10:48:24;;;;;;;4.28;2.72;;;;;;;30.81;39.69;100134.72;10456494;28;20380;-72
2022/07/28 10:53:55;;;;;;;5.33;2.93;;;;;;;31.22;38.81;100172.16;10456991;28;20067;-71
2022/07/28 10:59:02;;;;;;;5.27;3.00;;;;;;;31.12;39.83;100143.03;10455690;28;20055;-70
2022/07/28 11:04:05;;;;;;;6.05;2.83;;;;;;;31.21;39.07;100180.72;10455958;28;20068;-74
2022/07/28 11:09:15;;;;;;;8.85;3.08;;;;;;;30.83;39.67;100179.06;10449884;28;20044;-72
2022/07/28 11:14:24;;;;;;;7.63;2.60;;;;;;;31.19;39.83;100182.94;10455174;28;20040;-72
2022/07/28 11:19:27;;;;;;;14.57;2.75;;;;;;;31.29;38.82;100178.06;10455506;28;20036;-72
2022/07/28 11:24:57;;;;;;;3.10;2.30;;;;;;;31.07;38.79;100169.78;10453455;28;20047;-73
2022/07/28 11:29:58;;;;;;;4.35;2.70;;;;;;;30.57;38.55;100076.53;10454491;28;20515;-72
2022/07/28 11:35:07;;;;;;;3.53;2.58;;;;;;;31.34;36.55;100172.44;10454990;28;20514;-72
2022/07/28 11:40:31;;;;;;;3.78;2.40;;;;;;;31.65;34.74;100168.13;10455387;28;20041;-72
2022/07/28 11:45:31;;;;;;;4.22;2.85;;;;;;;31.65;36.44;100149.75;10453901;28;20041;-71
2022/07/28 11:50:33;;;;;;;3.92;2.53;;;;;;;31.58;36.79;100152.09;10428249;28;20053;-72
2022/07/28 11:55:34;;;;;;;3.30;2.67;;;;;;;31.20;37.92;100056.41;10420420;28;20083;-73
2022/07/28 12:00:35;;;;;;;5.30;2.55;;;;;;;31.32;37.78;100047.59;10452169;28;20053;-73
2022/07/28 12:05:36;;;;;;;10.27;3.15;;;;;;;31.68;36.83;100126.31;10450879;28;20052;-72
2022/07/28 12:10:36;;;;;;;6.03;2.72;;;;;;;31.87;37.00;100128.84;10445938;28;20505;-70
2022/07/28 12:15:37;;;;;;;4.72;2.45;;;;;;;31.90;35.58;100134.56;10429246;28;20063;-73
2022/07/28 12:20:44;;;;;;;3.38;2.20;;;;;;;31.91;33.85;100144.41;10454007;28;20091;-72
2022/07/28 12:25:48;;;;;;;3.38;2.40;;;;;;;31.14;35.08;100005.53;10449555;28;20102;-72
2022/07/28 12:30:50;;;;;;;4.20;2.88;;;;;;;31.44;36.11;100089.06;10453272;28;20408;-71
2022/07/28 12:35:55;;;;;;;5.18;2.55;;;;;;;31.65;36.44;100130.53;10455504;28;20492;-71
2022/07/28 12:40:57;;;;;;;3.65;2.65;;;;;;;31.74;36.02;100136.88;10435735;28;20442;-72
2022/07/28 12:45:57;;;;;;;5.43;2.42;;;;;;;31.76;35.96;100156.56;10441776;28;20056;-69
2022/07/28 12:50:59;;;;;;;3.45;2.40;;;;;;;31.25;36.30;100083.72;10435736;28;20428;-72
2022/07/28 12:56:01;;;;;;;5.07;2.00;;;;;;;31.65;35.96;100138.78;10434784;28;20037;-72
2022/07/28 13:01:07;;;;;;;5.85;2.20;;;;;;;31.74;35.25;100152.53;10436581;28;20397;-71
2022/07/28 13:06:09;;;;;;;4.70;1.95;;;;;;;31.01;34.73;100034.66;10433995;28;20091;-71
2022/07/28 13:11:14;;;;;;;2.80;1.70;;;;;;;31.48;34.38;100101.03;10435307;28;20041;-71
2022/07/28 13:16:21;;;;;;;4.70;2.20;;;;;;;31.71;35.15;100143.00;10439431;28;20029;-71
2022/07/28 13:21:43;;;;;;;2.90;1.95;;;;;;;31.78;34.63;100118.63;10434490;28;20043;-71
2022/07/28 13:26:43;;;;;;;2.78;1.80;;;;;;;31.93;34.71;100135.88;10432477;28;20155;-71
2022/07/28 13:31:44;;;;;;;4.50;2.22;;;;;;;31.85;34.77;100140.16;10433317;28;20128;-71
2022/07/28 13:36:45;;;;;;;5.22;2.42;;;;;;;31.28;34.52;100052.91;10433175;28;20090;-73
2022/07/28 13:41:46;;;;;;;2.92;1.90;;;;;;;31.62;35.10;100125.66;10433758;28;20045;-71
2022/07/28 13:46:47;;;;;;;3.58;1.98;;;;;;;31.38;34.62;100093.88;10433292;28;20040;-72
2022/07/28 13:51:48;;;;;;;4.93;2.30;;;;;;;30.64;35.22;99997.44;10419397;28;20042;-71
2022/07/28 14:02:09;;;;;;;7.10;2.20;;;;;;;31.55;35.58;100134.31;10417076;28;20047;-71
2022/07/28 14:13:51;;;;;;;12.32;2.20;;;;;;;31.30;36.09;100126.72;10573556;27;20807;-71
2022/07/28 14:18:51;;;;;;;5.45;2.20;;;;;;;31.34;37.05;100119.47;10574165;28;20044;-72
2022/07/28 14:23:52;;;;;;;5.82;2.13;;;;;;;31.31;36.82;100114.59;10573791;28;20111;-71
2022/07/28 14:28:53;;;;;;;2.53;1.88;;;;;;;31.32;36.92;100117.03;10572383;28;20512;-71
2022/07/28 14:33:54;;;;;;;3.25;1.88;;;;;;;31.28;36.46;100105.06;10573344;28;20039;-71
2022/07/28 14:38:55;;;;;;;4.20;2.08;;;;;;;31.25;37.02;100124.88;10573547;28;20052;-72
2022/07/28 14:43:57;;;;;;;5.87;2.00;;;;;;;31.18;36.93;100115.50;10588896;28;20066;-71
2022/07/28 14:48:58;;;;;;;8.07;2.77;;;;;;;31.04;37.54;100121.00;10573221;28;20091;-72
2022/07/28 14:53:59;;;;;;;4.95;2.20;;;;;;;31.00;37.39;100122.78;10573176;28;20495;-71
2022/07/28 14:59:00;;;;;;;7.63;2.25;;;;;;;30.79;36.89;100125.97;10573078;28;20420;-72
2022/07/28 15:04:01;;;;;;;3.17;1.85;;;;;;;30.56;37.77;100129.75;10572664;28;20036;-72
2022/07/28 15:09:02;;;;;;;7.03;2.25;;;;;;;30.35;37.85;100078.09;10571558;28;20118;-72
2022/07/28 15:14:04;;;;;;;6.90;2.25;;;;;;;30.65;37.77;100119.66;10572319;28;20047;-71
2022/07/28 15:19:08;;;;;;;6.00;1.95;;;;;;;30.67;37.38;100128.41;10572152;28;20043;-71
2022/07/28 15:24:09;;;;;;;9.68;2.10;;;;;;;30.10;37.64;100057.50;10549081;28;20036;-71
2022/07/28 15:29:09;;;;;;;7.15;2.20;;;;;;;30.28;37.86;100113.31;10542828;28;20040;-71
2022/07/28 15:34:10;;;;;;;10.77;1.90;;;;;;;30.06;37.71;100111.25;10543795;28;20151;-71
2022/07/28 15:39:14;;;;;;;9.55;2.15;;;;;;;30.16;38.15;100151.34;10542190;28;20123;-72
2022/07/28 15:44:16;;;;;;;12.82;2.60;;;;;;;29.92;39.19;100141.38;10543922;28;20143;-71
2022/07/28 15:49:17;;;;;;;45.83;4.57;;;;;;;29.80;40.71;100150.06;10519230;28;20564;-71
2022/07/28 15:54:18;;;;;;;9.60;2.47;;;;;;;29.30;41.74;100132.56;10488585;28;20036;-72
2022/07/28 15:59:19;;;;;;;25.73;3.60;;;;;;;28.89;42.89;100103.06;10474683;28;20044;-73
2022/07/28 16:04:20;;;;;;;38.58;5.82;;;;;;;28.88;44.56;100162.41;10459509;28;20110;-70
2022/07/28 16:09:21;;;;;;;48.72;5.88;;;;;;;28.63;45.62;100177.22;10458313;28;20056;-71
2022/07/28 16:14:22;;;;;;;56.35;5.95;;;;;;;28.30;47.32;100168.03;10457845;28;20045;-71
2022/07/28 16:19:24;;;;;;;23.52;4.30;;;;;;;27.50;48.51;100105.72;10458340;28;20126;-72
2022/07/28 16:24:24;;;;;;;29.70;4.00;;;;;;;27.18;49.25;100103.53;10457549;28;20496;-71
2022/07/28 16:29:26;;;;;;;20.38;3.13;;;;;;;27.34;50.39;100191.50;10457659;28;20045;-71
2022/07/28 16:34:27;;;;;;;51.53;5.97;;;;;;;26.98;52.82;100186.22;10456619;28;20041;-71
2022/07/28 16:39:29;;;;;;;27.50;5.40;;;;;;;26.70;53.57;100187.75;10457455;28;20052;-71
2022/07/28 16:44:31;;;;;;;110.47;10.30;;;;;;;26.22;55.15;100152.72;10456482;28;20041;-71
2022/07/28 16:49:31;;;;;;;45.53;8.10;;;;;;;26.28;55.89;100200.63;10462752;28;20557;-71
2022/07/28 16:54:32;;;;;;;23.27;9.30;;;;;;;26.04;55.89;100197.69;10472559;28;20083;-71
2022/07/28 16:59:33;;;;;;;30.08;17.98;;;;;;;25.84;55.98;100203.94;10497249;28;20047;-71
2022/07/28 17:04:34;;;;;;;30.33;13.43;;;;;;;25.64;57.35;100212.91;10461166;28;20047;-68
2022/07/28 17:09:35;;;;;;;28.38;12.95;;;;;;;25.38;59.16;100212.06;10455725;28;20057;-68
2022/07/28 17:14:35;;;;;;;38.30;12.13;;;;;;;25.17;60.32;100222.06;10494316;28;20041;-68
2022/07/28 17:19:36;;;;;;;26.75;11.68;;;;;;;24.70;61.38;100194.97;10490380;28;20048;-68
2022/07/28 17:24:37;;;;;;;114.47;15.98;;;;;;;24.66;62.75;100230.00;10495639;28;20036;-67
2022/07/28 17:29:38;;;;;;;40.58;14.70;;;;;;;23.95;64.60;100153.53;10497440;28;20044;-68
2022/07/28 17:34:39;;;;;;;49.80;17.40;;;;;;;24.10;65.03;100210.63;10496604;28;20135;-67
2022/07/28 17:39:40;;;;;;;20.92;11.48;;;;;;;24.14;66.11;100255.16;10496506;28;20586;-67
2022/07/28 17:44:41;;;;;;;37.25;17.05;;;;;;;24.01;67.02;100253.69;10496358;28;20124;-69
2022/07/28 17:49:42;;;;;;;16.90;7.55;;;;;;;23.86;67.23;100253.56;10495615;28;20040;-67
2022/07/28 18:00:03;;;;;;;10.85;5.32;;;;;;;23.49;68.16;100240.75;10495934;28;20050;-67
2022/07/28 18:05:04;;;;;;;19.95;8.13;;;;;;;23.53;69.15;100271.69;10495385;28;20072;-67
2022/07/28 18:10:06;;;;;;;18.23;6.47;;;;;;;23.40;70.18;100272.91;10495258;28;20488;-67
2022/07/28 18:15:07;;;;;;;12.77;5.68;;;;;;;23.23;70.72;100269.47;10495157;28;20127;-68
2022/07/28 18:20:09;;;;;;;15.73;6.05;;;;;;;22.42;71.65;100158.22;10495094;28;20072;-68
2022/07/28 18:25:09;;;;;;;27.88;7.70;;;;;;;22.73;72.56;100221.69;10495427;28;20040;-67
2022/07/28 18:30:11;;;;;;;22.27;10.15;;;;;;;22.85;73.09;100264.88;10493659;28;20048;-68
2022/07/28 18:35:12;;;;;;;21.33;9.25;;;;;;;22.21;74.19;100179.56;10482143;28;20075;-68
2022/07/28 18:40:14;;;;;;;12.38;5.07;;;;;;;22.48;74.31;100238.41;10477443;28;20044;-68
2022/07/28 18:45:15;;;;;;;10.15;5.63;;;;;;;22.09;74.57;100192.34;10469832;28;20041;-68
2022/07/28 18:50:16;;;;;;;10.70;5.47;;;;;;;22.30;76.10;100248.44;10486741;28;20123;-68
2022/07/28 18:55:17;;;;;;;12.35;6.57;;;;;;;22.22;75.89;100259.66;10477827;28;20135;-68
2022/07/28 19:00:19;;;;;;;11.30;4.38;;;;;;;22.22;76.29;100261.56;10460250;28;20434;-68
2022/07/28 19:05:19;;;;;;;13.27;5.05;;;;;;;21.52;77.48;100171.69;10460970;28;20124;-68
2022/07/28 19:10:20;;;;;;;9.65;4.63;;;;;;;22.00;77.67;100235.22;10461283;28;20139;-68
2022/07/28 19:15:21;;;;;;;9.57;4.88;;;;;;;22.06;78.20;100260.47;10460157;28;20037;-68
2022/07/28 19:20:22;;;;;;;15.05;5.30;;;;;;;21.84;78.16;100231.44;10499212;28;20079;-68
2022/07/28 19:25:23;;;;;;;9.77;5.32;;;;;;;21.90;78.52;100262.09;10502217;28;20040;-68
2022/07/28 19:30:24;;;;;;;24.15;7.18;;;;;;;21.52;78.58;100197.91;10496409;28;20048;-68
2022/07/28 19:35:25;;;;;;;64.28;13.48;;;;;;;21.66;79.22;100231.69;10459487;28;20408;-68
2022/07/28 19:40:30;;;;;;;29.42;13.10;;;;;;;21.68;79.57;100258.47;10459844;28;20530;-68
2022/07/28 19:45:31;;;;;;;22.77;10.07;;;;;;;21.31;79.61;100196.69;10459676;28;20436;-68
2022/07/28 19:50:32;;;;;;;26.25;12.43;;;;;;;21.63;80.31;100260.03;10459931;28;20044;-68
2022/07/28 19:55:34;;;;;;;32.35;12.00;;;;;;;21.58;80.81;100249.13;10462125;28;20036;-68
2022/07/28 20:00:35;;;;;;;33.08;11.13;;;;;;;21.37;80.97;100239.81;10490900;28;20155;-68
2022/07/28 20:05:37;;;;;;;17.30;9.80;;;;;;;21.43;80.72;100263.16;10483192;28;20123;-68
2022/07/28 20:10:38;;;;;;;16.67;9.13;;;;;;;20.71;82.04;100158.28;10459246;28;20530;-68
2022/07/28 20:15:40;;;;;;;14.40;8.27;;;;;;;21.24;82.24;100242.78;10459174;28;20067;-68
2022/07/28 20:20:41;;;;;;;12.77;7.80;;;;;;;21.16;82.42;100251.25;10457978;28;20051;-68
2022/07/28 20:25:43;;;;;;;15.27;7.03;;;;;;;20.58;82.96;100174.78;10477329;28;20140;-68
2022/07/28 20:30:44;;;;;;;21.23;7.28;;;;;;;21.07;83.22;100255.41;10458112;28;20041;-68
2022/07/28 20:35:45;;;;;;;14.48;7.40;;;;;;;21.03;83.56;100246.13;10457995;28;20033;-68
2022/07/28 20:40:46;;;;;;;18.85;9.25;;;;;;;20.98;83.59;100252.25;10457103;28;20049;-68
2022/07/28 20:45:47;;;;;;;18.40;7.55;;;;;;;20.87;83.33;100236.88;10457298;28;20041;-68
2022/07/28 20:50:47;;;;;;;22.40;10.07;;;;;;;20.90;83.70;100245.31;10457308;28;20110;-68
2022/07/28 20:55:48;;;;;;;46.35;13.10;;;;;;;20.65;83.82;100207.84;10457027;28;20511;-67
2022/07/28 21:00:49;;;;;;;30.15;12.05;;;;;;;20.70;84.02;100221.44;10456013;28;20123;-67
2022/07/28 21:05:50;;;;;;;20.33;11.43;;;;;;;20.46;84.23;100188.25;10456591;28;20127;-68
2022/07/28 21:10:51;;;;;;;23.20;9.07;;;;;;;20.80;84.05;100238.91;10456364;28;20061;-68
2022/07/28 21:15:52;;;;;;;14.68;8.13;;;;;;;20.76;84.24;100246.69;10456600;28;20049;-68
2022/07/28 21:20:53;;;;;;;14.15;7.45;;;;;;;20.74;84.54;100235.28;10455461;28;20107;-68
2022/07/28 21:25:53;;;;;;;17.38;7.38;;;;;;;20.57;85.33;100224.38;10455195;28;20044;-68
2022/07/28 21:30:54;;;;;;;13.77;7.35;;;;;;;20.61;85.49;100239.06;10455964;28;20046;-68
2022/07/28 21:35:55;;;;;;;32.92;7.40;;;;;;;20.01;85.80;100156.50;10455990;28;20510;-68
2022/07/28 21:40:56;;;;;;;17.60;8.70;;;;;;;19.93;86.25;100167.63;10455390;28;20036;-68
2022/07/28 21:45:57;;;;;;;12.57;7.20;;;;;;;20.33;86.86;100237.03;10455262;28;20040;-68
2022/07/28 21:50:58;;;;;;;16.02;7.20;;;;;;;20.27;87.46;100237.97;10454902;28;20155;-68
2022/07/28 21:56:00;;;;;;;26.00;7.00;;;;;;;20.36;87.32;100244.66;10454722;28;20066;-68
2022/07/28 22:01:00;;;;;;;14.50;7.00;;;;;;;19.74;87.24;100166.06;10455415;28;20560;-68
2022/07/28 22:06:04;;;;;;;14.55;7.13;;;;;;;20.24;87.35;100249.25;10454037;28;20128;-68
2022/07/28 22:11:05;;;;;;;;;;;;;;;20.34;86.57;100254.03;10454064;28;20131;-68
2022/07/28 22:16:06;;;;;;;11.30;6.45;;;;;;;20.13;86.74;100258.94;10453856;28;20011;-68
2022/07/28 22:21:07;;;;;;;10.98;7.57;;;;;;;19.95;87.51;100230.22;10454693;28;20523;-68
2022/07/28 22:26:08;;;;;;;16.05;10.35;;;;;;;19.93;87.91;100245.81;10454647;28;20041;-68
2022/07/28 22:31:09;;;;;;;20.55;11.63;;;;;;;19.66;88.62;100223.84;10454783;28;20554;-68
2022/07/28 22:36:09;;;;;;;18.58;10.38;;;;;;;19.65;89.45;100242.91;10462945;28;20060;-68
2022/07/28 22:41:10;;;;;;;27.55;10.27;;;;;;;19.66;90.22;100244.59;10462695;28;20079;-68
2022/07/28 22:46:11;;;;;;;23.33;9.00;;;;;;;19.63;90.83;100250.41;10462462;28;20043;-68
2022/07/28 22:51:13;;;;;;;21.60;9.75;;;;;;;19.50;90.84;100230.66;10461253;28;20083;-68
2022/07/28 22:56:14;;;;;;;19.67;8.88;;;;;;;19.57;90.84;100257.53;10461686;28;20052;-68
2022/07/28 23:01:15;;;;;;;19.08;9.95;;;;;;;19.55;90.81;100256.94;10460899;28;20044;-68
2022/07/28 23:06:16;;;;;;;23.08;10.07;;;;;;;19.54;90.87;100258.81;10461635;28;20033;-68
2022/07/28 23:11:17;;;;;;;20.15;9.00;;;;;;;19.22;90.90;100212.41;10461209;28;20535;-68
2022/07/28 23:16:18;;;;;;;15.63;7.97;;;;;;;19.45;91.46;100270.97;10460064;28;20044;-68